Time;durP1;ratioP1;P1;durP2;ratioP2;P2;SDS_P1;SDS_P2;PMS_P1;PMS_P2;Temp;Humidity;BMP_temperature;BMP_pressure;BME280_temperature;BME280_humidity;BME280_pressure;Samples;Min_cycle;Max_cycle;Signal;HPM_P1;HPM_P2
2021/06/25 00:02:01;;;;;;;4.55;2.00;;;;;;;18.10;76.37;96613.41;127423;1093;114435;-92
2021/06/25 00:04:33;;;;;;;6.95;1.95;;;;;;;18.25;76.65;96621.99;127582;1092;25912;-92
2021/06/25 00:07:04;;;;;;;2.23;1.53;;;;;;;18.29;76.33;96604.12;127751;1093;23283;-90
2021/06/25 00:09:36;;;;;;;5.20;1.68;;;;;;;18.23;75.96;96606.22;127400;1093;113778;-89
2021/06/25 00:12:10;;;;;;;2.90;1.83;;;;;;;18.15;76.22;96606.27;127430;1092;26831;-90
2021/06/25 00:14:41;;;;;;;4.00;1.93;;;;;;;18.14;76.25;96593.97;127648;1093;113742;-91
2021/06/25 00:17:13;;;;;;;2.08;1.60;;;;;;;18.23;76.62;96586.66;127658;1092;28230;-90
2021/06/25 00:19:45;;;;;;;1.90;1.18;;;;;;;18.34;76.64;96593.98;127739;1093;113877;-91
2021/06/25 00:22:16;;;;;;;3.93;1.60;;;;;;;18.33;76.14;96587.05;127487;1092;25239;-94
2021/06/25 00:24:48;;;;;;;2.23;1.40;;;;;;;18.24;75.91;96589.00;127830;1093;26495;-90
2021/06/25 00:27:19;;;;;;;3.13;1.70;;;;;;;18.17;76.11;96585.30;127712;1093;114055;-95
2021/06/25 00:29:50;;;;;;;2.70;1.83;;;;;;;18.24;76.43;96572.13;127760;1092;24348;-91
2021/06/25 00:32:22;;;;;;;2.53;1.90;;;;;;;18.30;76.34;96574.30;127649;1092;113875;-91
2021/06/25 00:34:53;;;;;;;4.83;1.70;;;;;;;18.33;76.28;96570.95;127601;1093;25648;-92
2021/06/25 00:37:24;;;;;;;3.18;1.43;;;;;;;18.37;76.25;96571.06;127422;1093;23092;-93
2021/06/25 00:39:55;;;;;;;2.33;1.50;;;;;;;18.40;76.20;96573.09;127580;1093;113602;-91
2021/06/25 00:42:27;;;;;;;2.80;1.90;;;;;;;18.43;76.30;96579.69;127658;1093;24396;-91
2021/06/25 00:44:58;;;;;;;4.00;1.85;;;;;;;18.40;76.20;96584.61;127457;1093;114342;-94
2021/06/25 00:47:29;;;;;;;2.15;1.30;;;;;;;18.43;76.12;96588.53;127430;1093;24709;-93
2021/06/25 00:50:01;;;;;;;3.95;1.45;;;;;;;18.48;76.20;96591.03;127816;1093;113849;-94
2021/06/25 00:52:33;;;;;;;3.50;1.55;;;;;;;18.44;75.91;96595.50;127574;1092;24187;-96
2021/06/25 00:55:06;;;;;;;3.18;1.20;;;;;;;18.32;75.88;96579.33;127514;1093;22794;-91
2021/06/25 00:57:37;;;;;;;1.60;1.33;;;;;;;18.23;75.61;96592.80;127341;1093;114550;-91
2021/06/25 01:00:11;;;;;;;2.75;1.60;;;;;;;17.94;75.82;96576.77;127444;1093;23227;-91
2021/06/25 01:02:42;;;;;;;1.87;1.43;;;;;;;17.71;76.19;96571.69;127349;1092;114833;-93
2021/06/25 01:05:16;;;;;;;4.08;1.68;;;;;;;17.53;76.83;96583.59;127421;1091;26959;-91
2021/06/25 01:07:48;;;;;;;3.08;1.65;;;;;;;17.33;77.13;96585.11;127333;1093;114114;-95
2021/06/25 01:10:19;;;;;;;3.83;1.70;;;;;;;17.33;78.08;96576.29;127424;1093;25328;-90
2021/06/25 01:12:51;;;;;;;4.23;1.30;;;;;;;17.43;78.33;96555.25;127433;1093;36260;-93
2021/06/25 01:15:23;;;;;;;3.05;1.68;;;;;;;17.61;78.59;96544.46;127317;1092;114101;-91
2021/06/25 01:17:54;;;;;;;3.27;2.00;;;;;;;17.67;78.44;96540.47;127445;1093;24219;-93
2021/06/25 01:20:29;;;;;;;4.68;1.80;;;;;;;17.74;78.27;96544.25;127349;1093;114349;-93
2021/06/25 01:23:01;;;;;;;3.80;1.83;;;;;;;17.85;78.31;96538.48;127483;1093;25254;-93
2021/06/25 01:25:35;;;;;;;3.40;1.65;;;;;;;17.95;78.13;96530.84;127455;1093;23576;-92
2021/06/25 01:28:09;;;;;;;2.60;1.60;;;;;;;17.96;77.84;96515.53;127324;1093;113706;-91
2021/06/25 01:30:43;;;;;;;2.95;1.68;;;;;;;17.99;77.76;96517.55;127458;1093;23441;-93
2021/06/25 01:33:16;;;;;;;5.57;2.10;;;;;;;17.99;77.68;96515.65;127317;1093;114617;-92
2021/06/25 01:35:49;;;;;;;3.35;1.83;;;;;;;17.96;77.66;96520.89;127427;1093;22854;-94
2021/06/25 01:38:20;;;;;;;2.23;1.40;;;;;;;18.01;77.57;96532.20;127336;1093;114629;-94
2021/06/25 01:40:51;;;;;;;3.03;2.05;;;;;;;17.78;77.20;96539.80;127432;1093;27198;-89
2021/06/25 01:43:26;;;;;;;3.90;1.90;;;;;;;17.60;77.58;96540.99;127404;1093;22854;-91
2021/06/25 01:45:57;;;;;;;4.23;1.80;;;;;;;17.68;78.01;96524.08;127348;1093;113686;-91
2021/06/25 01:48:29;;;;;;;1.70;1.40;;;;;;;17.78;78.11;96526.39;127441;1093;24172;-93
2021/06/25 01:51:01;;;;;;;2.63;1.80;;;;;;;17.65;77.39;96534.65;127366;1093;113938;-93
2021/06/25 01:53:32;;;;;;;4.45;2.10;;;;;;;17.46;77.79;96517.11;127532;1093;22803;-95
2021/06/25 01:56:04;;;;;;;3.58;1.65;;;;;;;17.51;78.35;96514.23;127403;1093;113904;-91
2021/06/25 01:58:35;;;;;;;4.58;2.08;;;;;;;17.56;78.21;96510.56;127462;1093;28962;-91
2021/06/25 02:01:13;;;;;;;2.85;1.53;;;;;;;17.41;78.45;96508.45;127418;1093;24469;-91
2021/06/25 02:03:46;;;;;;;2.73;1.80;;;;;;;17.37;78.44;96512.89;127358;1093;114393;-92
2021/06/25 02:06:18;;;;;;;5.90;3.75;;;;;;;17.25;79.17;96520.84;127421;1093;23094;-92
2021/06/25 02:08:49;;;;;;;3.13;2.25;;;;;;;17.30;79.78;96523.32;127365;1093;114120;-96
2021/06/25 02:11:22;;;;;;;4.95;2.48;;;;;;;17.43;80.09;96519.63;127514;1093;22812;-92
2021/06/25 02:13:54;;;;;;;5.38;2.85;;;;;;;17.46;80.04;96513.64;127325;1093;113922;-90
2021/06/25 02:16:26;;;;;;;7.25;3.90;;;;;;;17.52;80.19;96504.30;127448;1093;22932;-94
2021/06/25 02:18:57;;;;;;;4.55;3.55;;;;;;;17.60;80.49;96500.78;127453;1093;24697;-92
2021/06/25 02:21:28;;;;;;;7.38;3.88;;;;;;;17.68;80.45;96499.14;127379;1093;113691;-91
2021/06/25 02:23:59;;;;;;;5.83;4.00;;;;;;;17.77;80.66;96513.31;127469;1093;26271;-92
2021/06/25 02:26:31;;;;;;;9.95;4.78;;;;;;;17.87;80.86;96515.58;127366;1093;114125;-96
2021/06/25 02:29:02;;;;;;;9.73;5.18;;;;;;;17.89;80.16;96524.11;127530;1093;26273;-92
2021/06/25 02:31:33;;;;;;;6.78;4.95;;;;;;;17.91;80.76;96519.20;127501;1093;24303;-92
2021/06/25 02:34:05;;;;;;;6.78;4.58;;;;;;;17.95;80.82;96520.11;127376;1093;114314;-96
2021/06/25 02:36:36;;;;;;;6.60;4.05;;;;;;;17.97;80.69;96506.36;127459;1093;22829;-93
2021/06/25 02:39:08;;;;;;;6.18;3.88;;;;;;;18.01;80.57;96505.38;127570;1093;114666;-91
2021/06/25 02:41:39;;;;;;;7.03;4.17;;;;;;;18.09;80.71;96501.06;127440;1093;26504;-92
2021/06/25 02:44:11;;;;;;;5.63;4.03;;;;;;;18.18;80.74;96506.36;127380;1093;113929;-90
2021/06/25 02:46:42;;;;;;;9.33;4.03;;;;;;;18.22;80.48;96520.69;127456;1092;24600;-96
2021/06/25 02:49:13;;;;;;;7.68;3.30;;;;;;;18.33;80.42;96535.27;127543;1093;26821;-91
2021/06/25 02:51:45;;;;;;;5.60;3.50;;;;;;;18.37;80.25;96523.54;127526;1093;114127;-91
2021/06/25 02:54:16;;;;;;;10.13;3.53;;;;;;;18.46;80.25;96530.73;127628;1093;23429;-91
2021/06/25 02:56:48;;;;;;;7.10;3.45;;;;;;;18.47;80.08;96525.03;127485;1093;114512;-92
2021/06/25 02:59:19;;;;;;;5.33;3.78;;;;;;;18.47;79.64;96537.67;127631;1093;24444;-92
2021/06/25 03:01:50;;;;;;;6.98;3.83;;;;;;;18.37;79.79;96536.95;127526;1093;113877;-90
2021/06/25 03:04:21;;;;;;;7.15;3.98;;;;;;;18.41;79.76;96534.39;127496;1092;22830;-92
2021/06/25 03:06:53;;;;;;;6.93;3.40;;;;;;;18.48;79.81;96540.02;127551;1092;22820;-91
2021/06/25 03:09:24;;;;;;;5.15;3.18;;;;;;;18.53;79.71;96542.49;127415;1092;113888;-93
2021/06/25 03:11:55;;;;;;;6.20;4.23;;;;;;;18.37;79.31;96555.75;127620;1093;24580;-92
2021/06/25 03:14:27;;;;;;;8.05;3.88;;;;;;;18.15;79.13;96572.17;127524;1093;114491;-89
2021/06/25 03:16:58;;;;;;;5.05;3.43;;;;;;;18.00;79.71;96575.45;127567;1093;26469;-89
2021/06/25 03:19:29;;;;;;;7.75;3.30;;;;;;;18.02;80.28;96575.93;127590;1093;23904;-89
2021/06/25 03:22:01;;;;;;;5.98;2.80;;;;;;;18.14;80.60;96577.88;127599;1093;113429;-90
2021/06/25 03:24:32;;;;;;;6.18;2.20;;;;;;;18.24;80.66;96570.22;127622;1093;27446;-92
2021/06/25 03:27:04;;;;;;;5.05;3.15;;;;;;;18.26;80.19;96576.05;127513;1092;113797;-90
2021/06/25 03:29:35;;;;;;;6.20;3.63;;;;;;;18.20;80.32;96580.05;127640;1092;25545;-92
2021/06/25 03:32:08;;;;;;;6.15;3.63;;;;;;;18.27;80.42;96572.24;127438;1093;113923;-91
2021/06/25 03:34:40;;;;;;;4.13;2.90;;;;;;;18.22;79.85;96571.67;127592;1093;27398;-90
2021/06/25 03:37:11;;;;;;;6.10;2.93;;;;;;;17.98;79.86;96580.36;127581;1092;23659;-91
2021/06/25 03:39:42;;;;;;;5.95;3.10;;;;;;;17.89;80.44;96577.75;127505;1093;113897;-91
2021/06/25 03:42:14;;;;;;;5.10;2.68;;;;;;;17.90;80.70;96575.86;127603;1093;24146;-91
2021/06/25 03:44:45;;;;;;;6.53;2.65;;;;;;;17.95;80.95;96581.02;127468;1093;113756;-92
2021/06/25 03:47:16;;;;;;;6.75;3.18;;;;;;;17.95;80.96;96581.80;127537;1092;25683;-92
2021/06/25 03:49:47;;;;;;;6.33;3.88;;;;;;;17.96;81.15;96583.37;127546;1093;114180;-90
2021/06/25 03:52:19;;;;;;;5.35;3.40;;;;;;;18.10;81.49;96575.85;127620;1093;24801;-90
2021/06/25 03:54:51;;;;;;;5.63;3.23;;;;;;;18.16;81.20;96568.41;127613;1093;25404;-91
2021/06/25 03:57:22;;;;;;;4.83;3.15;;;;;;;18.09;81.02;96570.81;127470;1093;113903;-90
2021/06/25 03:59:53;;;;;;;8.68;4.30;;;;;;;17.88;80.94;96570.81;127629;1093;24158;-90
2021/06/25 04:02:25;;;;;;;7.10;3.70;;;;;;;17.71;81.37;96571.69;127522;1093;114546;-90
2021/06/25 04:04:56;;;;;;;5.98;3.93;;;;;;;17.57;81.97;96568.42;127614;1092;22976;-91
2021/06/25 04:07:27;;;;;;;6.53;3.50;;;;;;;17.50;82.43;96568.16;127627;1093;25555;-91
2021/06/25 04:09:59;;;;;;;6.03;3.47;;;;;;;17.48;82.79;96579.21;127492;1093;114260;-91
2021/06/25 04:12:31;;;;;;;6.80;3.85;;;;;;;17.47;83.08;96576.86;127612;1093;25173;-91
2021/06/25 04:15:04;;;;;;;6.43;3.95;;;;;;;17.40;83.12;96573.88;127530;1093;113690;-91
2021/06/25 04:17:35;;;;;;;7.38;3.35;;;;;;;17.35;83.56;96568.71;127669;1093;24685;-91
2021/06/25 04:20:09;;;;;;;5.08;3.23;;;;;;;17.34;83.82;96572.50;127470;1093;113866;-92
2021/06/25 04:22:40;;;;;;;4.45;2.95;;;;;;;17.41;84.17;96570.88;127643;1093;22825;-91
2021/06/25 04:25:13;;;;;;;4.53;3.30;;;;;;;17.54;84.44;96566.40;127625;1092;23301;-91
2021/06/25 04:27:45;;;;;;;4.80;3.30;;;;;;;17.57;83.88;96560.38;127522;1093;114233;-90
2021/06/25 04:30:18;;;;;;;7.80;3.58;;;;;;;17.59;84.12;96555.48;127634;1093;23734;-91
2021/06/25 04:32:49;;;;;;;4.98;3.53;;;;;;;17.65;84.14;96540.80;127512;1093;113896;-91
2021/06/25 04:35:21;;;;;;;6.03;3.53;;;;;;;17.78;84.21;96529.07;127578;1093;23140;-91
2021/06/25 04:37:52;;;;;;;4.53;3.48;;;;;;;17.89;83.95;96524.11;127509;1093;113874;-91
2021/06/25 04:40:24;;;;;;;5.15;3.08;;;;;;;18.00;83.86;96524.48;127561;1093;23026;-91
2021/06/25 04:42:55;;;;;;;6.65;3.75;;;;;;;18.16;83.82;96511.25;127619;1093;22784;-91
2021/06/25 04:45:27;;;;;;;5.18;3.53;;;;;;;18.31;83.92;96498.03;127491;1093;113763;-91
2021/06/25 04:47:58;;;;;;;5.40;3.63;;;;;;;18.49;83.40;96489.80;127643;1093;23131;-92
2021/06/25 04:50:30;;;;;;;6.30;3.33;;;;;;;18.65;83.37;96480.02;127487;1093;113849;-91
2021/06/25 04:53:01;;;;;;;6.48;3.40;;;;;;;18.75;82.83;96478.81;127617;1093;26313;-91
2021/06/25 04:55:41;;;;;;;6.95;3.48;;;;;;;18.76;82.56;96477.70;127663;1093;24621;-92
2021/06/25 04:58:15;;;;;;;5.98;3.20;;;;;;;18.71;82.46;96473.30;127578;1092;113529;-92
2021/06/25 05:00:48;;;;;;;5.80;3.20;;;;;;;18.72;82.28;96464.16;127633;1093;23781;-91
2021/06/25 05:03:19;;;;;;;4.83;2.88;;;;;;;18.80;82.48;96460.57;127531;1092;114334;-91
2021/06/25 05:05:50;;;;;;;4.95;3.10;;;;;;;18.99;82.57;96460.02;127576;1093;23617;-90
2021/06/25 05:08:22;;;;;;;5.70;3.20;;;;;;;19.17;82.76;96452.53;127501;1093;114045;-91
2021/06/25 05:10:53;;;;;;;5.87;3.07;;;;;;;19.36;82.67;96454.63;127600;1093;23218;-91
2021/06/25 05:13:24;;;;;;;8.48;3.03;;;;;;;19.55;82.79;96447.55;127608;1093;24586;-91
2021/06/25 05:15:56;;;;;;;6.13;2.73;;;;;;;19.86;82.90;96443.45;127495;1093;114177;-91
2021/06/25 05:18:28;;;;;;;5.45;3.25;;;;;;;20.13;81.67;96444.59;127556;1093;24142;-90
2021/06/25 05:20:59;;;;;;;5.88;3.25;;;;;;;20.06;80.49;96434.39;127490;1093;112929;-91
2021/06/25 05:23:30;;;;;;;5.33;3.30;;;;;;;20.26;80.85;96429.91;127590;1092;31158;-90
2021/06/25 05:26:02;;;;;;;6.15;3.10;;;;;;;20.77;81.71;96418.53;127546;1093;114026;-91
2021/06/25 05:28:33;;;;;;;4.13;2.75;;;;;;;21.64;82.27;96416.28;127658;1093;26287;-91
2021/06/25 05:31:05;;;;;;;8.00;3.28;;;;;;;22.62;80.26;96420.45;127665;1093;26245;-90
2021/06/25 05:33:37;;;;;;;5.13;3.50;;;;;;;23.34;77.78;96409.61;127528;1092;113851;-91
2021/06/25 05:36:09;;;;;;;6.80;3.40;;;;;;;23.91;76.53;96406.88;127617;1093;26024;-90
2021/06/25 05:38:40;;;;;;;8.10;3.48;;;;;;;24.42;74.69;96398.16;127549;1093;113679;-91
2021/06/25 05:41:12;;;;;;;8.83;3.45;;;;;;;24.93;73.70;96402.86;127655;1091;24314;-90
2021/06/25 05:43:43;;;;;;;7.65;3.55;;;;;;;25.53;71.89;96399.77;127627;1093;24104;-91
2021/06/25 05:46:15;;;;;;;6.85;2.98;;;;;;;26.17;70.41;96392.65;127487;1093;113506;-90
2021/06/25 05:48:46;;;;;;;5.80;2.73;;;;;;;26.56;68.70;96392.74;127615;1093;22798;-92
2021/06/25 05:51:18;;;;;;;6.13;2.80;;;;;;;27.00;66.65;96390.80;127445;1093;113714;-90
2021/06/25 05:53:49;;;;;;;4.40;2.87;;;;;;;27.53;65.74;96385.28;127541;1093;24447;-93
2021/06/25 05:56:20;;;;;;;6.73;3.00;;;;;;;27.99;64.28;96390.56;127349;1093;113926;-93
2021/06/25 05:58:51;;;;;;;4.35;2.63;;;;;;;28.24;63.09;96392.38;127530;1093;22799;-91
2021/06/25 06:01:23;;;;;;;3.40;2.63;;;;;;;28.41;61.75;96388.02;127654;1092;25505;-90
2021/06/25 06:03:54;;;;;;;4.78;2.58;;;;;;;28.85;61.25;96377.14;127523;1093;115530;-91
2021/06/25 06:06:26;;;;;;;6.48;3.00;;;;;;;29.25;59.52;96386.55;127608;1093;25311;-90
2021/06/25 06:08:57;;;;;;;4.60;2.80;;;;;;;29.68;58.98;96390.80;127478;1093;113756;-91
2021/06/25 06:11:28;;;;;;;5.08;2.80;;;;;;;29.92;57.11;96394.42;127611;1093;26376;-90
2021/06/25 06:14:00;;;;;;;5.30;2.80;;;;;;;30.21;57.10;96386.65;127495;1093;113909;-90
2021/06/25 06:16:32;;;;;;;3.58;2.58;;;;;;;30.40;56.52;96392.24;127682;1093;24032;-91
2021/06/25 06:19:05;;;;;;;5.10;2.50;;;;;;;30.28;54.89;96400.23;127678;1093;25169;-90
2021/06/25 06:32:59;;;;;;;4.60;2.70;;;;;;;29.05;53.52;96412.12;127472;1093;113941;-91
2021/06/25 06:35:31;;;;;;;5.48;3.10;;;;;;;29.51;53.29;96423.38;127565;1092;23311;-91
2021/06/25 06:38:03;;;;;;;4.50;2.95;;;;;;;29.30;52.43;96433.73;127518;1093;113773;-90
2021/06/25 06:40:35;;;;;;;5.23;3.05;;;;;;;28.80;52.31;96440.34;127658;1093;25083;-90
2021/06/25 06:43:06;;;;;;;6.53;2.68;;;;;;;28.46;52.40;96442.16;127637;1093;24072;-89
2021/06/25 06:45:38;;;;;;;4.68;2.98;;;;;;;29.09;53.50;96445.61;127521;1093;113743;-91
2021/06/25 06:48:10;;;;;;;7.40;3.00;;;;;;;30.19;52.99;96438.25;127618;1093;25020;-90
2021/06/25 06:50:42;;;;;;;4.40;2.63;;;;;;;30.85;51.51;96435.77;127508;1093;112691;-91
2021/06/25 06:53:13;;;;;;;5.28;2.73;;;;;;;31.39;51.16;96443.09;127599;1092;24623;-90
2021/06/25 06:55:44;;;;;;;5.68;2.85;;;;;;;31.84;49.86;96441.50;127573;1093;28744;-91
2021/06/25 06:58:16;;;;;;;11.28;2.98;;;;;;;32.25;49.97;96434.79;127482;1093;113532;-92
2021/06/25 07:00:47;;;;;;;4.88;3.00;;;;;;;32.46;48.70;96445.31;127572;1092;27262;-90
2021/06/25 07:03:18;;;;;;;5.80;2.40;;;;;;;32.39;48.24;96450.98;127538;1093;113936;-91
2021/06/25 07:05:50;;;;;;;4.98;2.73;;;;;;;32.83;47.93;96461.80;127580;1093;24355;-90
2021/06/25 07:08:21;;;;;;;6.35;3.05;;;;;;;33.25;46.70;96470.98;127462;1093;114207;-91
2021/06/25 07:10:53;;;;;;;4.85;2.70;;;;;;;33.38;46.12;96473.83;127650;1093;23759;-90
2021/06/25 07:13:25;;;;;;;4.90;2.70;;;;;;;33.88;45.93;96478.80;127558;1093;24506;-91
2021/06/25 07:15:56;;;;;;;3.40;2.03;;;;;;;33.71;42.78;96480.80;127536;1093;113928;-92
2021/06/25 07:18:27;;;;;;;8.33;2.43;;;;;;;32.60;43.23;96470.91;127621;1093;26380;-91
2021/06/25 07:20:59;;;;;;;8.38;3.15;;;;;;;31.41;42.86;96473.61;127478;1093;113684;-91
2021/06/25 07:23:30;;;;;;;6.28;2.93;;;;;;;30.50;44.98;96475.33;127649;1093;25400;-90
2021/06/25 07:26:02;;;;;;;4.48;2.50;;;;;;;30.21;45.79;96479.63;127576;1093;114361;-91
2021/06/25 07:28:33;;;;;;;3.43;2.40;;;;;;;30.33;46.33;96470.88;127639;1093;23350;-91
2021/06/25 07:31:05;;;;;;;3.50;2.38;;;;;;;30.20;46.40;96483.55;127591;1092;24285;-91
2021/06/25 07:33:36;;;;;;;3.78;2.33;;;;;;;30.12;46.88;96489.12;127529;1093;114220;-90
2021/06/25 07:36:08;;;;;;;4.58;2.35;;;;;;;29.98;46.33;96485.72;127591;1092;25510;-92
2021/06/25 07:38:40;;;;;;;5.35;2.83;;;;;;;29.06;47.32;96499.06;127510;1093;114694;-92
2021/06/25 07:41:12;;;;;;;5.83;2.80;;;;;;;28.64;47.63;96506.33;127635;1093;25764;-92
2021/06/25 07:43:43;;;;;;;4.27;2.80;;;;;;;27.95;48.04;96504.25;127630;1093;23667;-92
2021/06/25 07:46:15;;;;;;;5.30;2.73;;;;;;;26.83;49.56;96509.33;127508;1093;113669;-93
2021/06/25 07:48:46;;;;;;;7.53;3.08;;;;;;;26.18;51.14;96502.92;127635;1093;25271;-93
2021/06/25 07:51:18;;;;;;;6.63;3.30;;;;;;;25.93;52.00;96502.03;127549;1093;114385;-92
2021/06/25 07:53:49;;;;;;;4.78;2.85;;;;;;;25.35;52.79;96506.30;127626;1093;23675;-93
2021/06/25 07:56:21;;;;;;;4.45;2.85;;;;;;;25.14;53.57;96517.75;127457;1093;113865;-92
2021/06/25 07:58:54;;;;;;;5.88;3.30;;;;;;;25.05;54.08;96521.92;127669;1092;26612;-92
2021/06/25 08:01:26;;;;;;;4.33;2.68;;;;;;;24.74;54.47;96515.02;127889;1093;26840;-93
2021/06/25 08:03:58;;;;;;;3.63;2.75;;;;;;;24.42;55.16;96517.39;127730;1093;113997;-92
2021/06/25 08:06:29;;;;;;;3.95;3.13;;;;;;;24.41;56.41;96508.48;127736;1092;24986;-92
2021/06/25 08:09:04;;;;;;;4.95;3.13;;;;;;;24.64;56.33;96508.36;127703;1093;114537;-92
2021/06/25 08:11:37;;;;;;;4.23;2.70;;;;;;;24.57;56.87;96522.59;127804;1093;27449;-92
2021/06/25 08:14:08;;;;;;;4.10;2.48;;;;;;;24.63;57.15;96525.75;127662;1092;113845;-91
2021/06/25 08:16:40;;;;;;;4.20;2.95;;;;;;;24.68;57.46;96525.43;127734;1093;26433;-92
2021/06/25 08:19:11;;;;;;;6.98;3.45;;;;;;;24.55;57.43;96529.55;127618;1092;27323;-92
2021/06/25 08:21:43;;;;;;;6.70;3.93;;;;;;;24.22;57.89;96538.44;127519;1093;114586;-92
2021/06/25 08:24:14;;;;;;;6.35;4.30;;;;;;;23.99;58.41;96536.59;127463;1093;25214;-95
2021/06/25 08:26:46;;;;;;;6.60;4.03;;;;;;;23.81;59.17;96529.38;127491;1092;114646;-93
2021/06/25 08:29:17;;;;;;;6.83;4.10;;;;;;;23.65;59.87;96541.15;127611;1093;25317;-92
2021/06/25 08:31:51;;;;;;;9.00;4.23;;;;;;;23.52;60.33;96547.88;127617;1093;28870;-93
2021/06/25 08:34:24;;;;;;;6.38;4.53;;;;;;;23.38;60.05;96561.19;127494;1093;113688;-93
2021/06/25 08:36:56;;;;;;;10.08;4.53;;;;;;;23.06;61.58;96563.33;127585;1093;26794;-93
2021/06/25 08:39:30;;;;;;;6.70;4.08;;;;;;;22.81;62.31;96573.69;127763;1093;113864;-93
2021/06/25 08:42:04;;;;;;;9.28;4.40;;;;;;;22.86;62.65;96562.61;127698;1093;24072;-92
2021/06/25 08:44:38;;;;;;;8.65;4.68;;;;;;;22.95;62.74;96565.09;127538;1093;114070;-92
2021/06/25 08:47:10;;;;;;;8.78;4.98;;;;;;;22.85;62.44;96569.16;127615;1092;27009;-92
2021/06/25 08:49:48;;;;;;;7.00;4.85;;;;;;;22.64;62.59;96579.52;127664;1093;30342;-93
2021/06/25 08:52:20;;;;;;;7.10;4.20;;;;;;;22.59;63.66;96571.71;127436;1093;113636;-93
2021/06/25 08:54:51;;;;;;;7.70;4.15;;;;;;;22.74;64.05;96568.14;127545;1093;25631;-93
2021/06/25 08:57:23;;;;;;;7.20;4.13;;;;;;;22.93;64.21;96572.75;127346;1093;113755;-94
2021/06/25 08:59:55;;;;;;;9.93;4.83;;;;;;;22.93;63.52;96584.34;127593;1093;23805;-93
2021/06/25 09:02:32;;;;;;;10.55;4.90;;;;;;;23.00;64.02;96581.79;127576;1093;114495;-93
2021/06/25 09:05:04;;;;;;;4.90;3.80;;;;;;;22.95;63.72;96579.39;127645;1093;24376;-93
2021/06/25 09:07:46;;;;;;;6.80;4.43;;;;;;;22.87;63.87;96583.09;127628;1093;25685;-93
2021/06/25 09:10:30;;;;;;;7.95;4.78;;;;;;;22.65;63.41;96581.86;127455;1092;113548;-94
2021/06/25 09:13:06;;;;;;;6.85;4.00;;;;;;;22.58;63.77;96579.04;127517;1093;25922;-93
2021/06/25 09:15:40;;;;;;;7.80;4.43;;;;;;;22.62;64.16;96584.50;127425;1093;113863;-94
2021/06/25 09:18:14;;;;;;;10.78;4.88;;;;;;;22.57;64.40;96590.98;127601;1093;29446;-93
2021/06/25 09:20:47;;;;;;;8.23;4.25;;;;;;;22.59;64.87;96587.92;127534;1093;114056;-91
2021/06/25 09:23:26;;;;;;;8.05;5.60;;;;;;;22.62;64.41;96584.50;127576;1093;26250;-93
2021/06/25 09:26:03;;;;;;;12.00;6.27;;;;;;;22.54;64.57;96582.81;127560;1093;27538;-92
2021/06/25 09:28:38;;;;;;;6.98;5.10;;;;;;;22.32;64.24;96576.97;127535;1093;113893;-91
2021/06/25 09:31:16;;;;;;;10.18;5.00;;;;;;;22.05;64.82;96580.60;127590;1093;28496;-91
2021/06/25 09:33:51;;;;;;;10.98;5.75;;;;;;;21.97;65.42;96576.20;127422;1093;113860;-92
2021/06/25 09:36:24;;;;;;;9.38;6.10;;;;;;;21.92;65.66;96596.91;127630;1093;25809;-92
2021/06/25 09:39:02;;;;;;;9.25;6.88;;;;;;;21.67;65.97;96576.67;127432;1093;113922;-93
2021/06/25 09:41:36;;;;;;;11.73;6.55;;;;;;;21.57;66.53;96583.41;127634;1093;25355;-93
2021/06/25 09:44:10;;;;;;;8.58;5.88;;;;;;;21.55;66.30;96599.16;127590;1093;26226;-94
2021/06/25 09:46:44;;;;;;;9.90;5.68;;;;;;;21.50;66.66;96612.11;127373;1093;113501;-93
2021/06/25 09:49:17;;;;;;;7.48;6.00;;;;;;;21.49;67.58;96602.45;127461;1092;25572;-95
2021/06/25 09:51:58;;;;;;;11.38;6.63;;;;;;;21.55;67.70;96572.18;127351;1092;114653;-94
2021/06/25 09:54:31;;;;;;;9.43;5.75;;;;;;;21.52;67.30;96572.86;127571;1093;27279;-92
2021/06/25 09:57:07;;;;;;;9.38;5.78;;;;;;;21.38;67.30;96596.01;127438;1093;113855;-93
2021/06/25 10:00:09;;;;;;;8.18;4.98;;;;;;;21.37;68.10;96595.23;127581;1093;24483;-92
2021/06/25 10:02:41;;;;;;;8.83;5.40;;;;;;;21.43;68.14;96576.89;127399;1092;114547;-93
2021/06/25 10:05:17;;;;;;;10.48;6.10;;;;;;;21.53;67.85;96606.80;127492;1093;28331;-94
2021/06/25 10:07:49;;;;;;;11.45;6.08;;;;;;;21.57;68.17;96623.09;127526;1093;26837;-92
2021/06/25 10:10:20;;;;;;;9.18;5.43;;;;;;;21.58;68.04;96619.25;127426;1093;114107;-93
2021/06/25 10:12:52;;;;;;;10.68;5.18;;;;;;;21.57;67.65;96612.30;127566;1093;24872;-93
2021/06/25 10:15:25;;;;;;;12.05;4.83;;;;;;;21.49;67.91;96605.15;127489;1093;114350;-93
2021/06/25 10:17:59;;;;;;;8.08;4.78;;;;;;;21.38;67.78;96601.41;127591;1093;25916;-93
2021/06/25 10:20:31;;;;;;;7.78;4.50;;;;;;;21.35;67.42;96605.58;127537;1093;114222;-93
2021/06/25 10:23:06;;;;;;;11.10;4.90;;;;;;;21.21;67.90;96615.98;127666;1092;26155;-93
2021/06/25 10:25:40;;;;;;;8.53;4.98;;;;;;;21.19;68.23;96619.03;127583;1093;26464;-93
2021/06/25 10:28:16;;;;;;;8.15;4.88;;;;;;;21.11;68.69;96617.27;127382;1093;114028;-93
2021/06/25 10:30:50;;;;;;;7.78;4.35;;;;;;;21.10;68.57;96639.18;127524;1093;24829;-93
2021/06/25 10:33:23;;;;;;;8.68;4.60;;;;;;;21.13;68.35;96638.52;127419;1093;113732;-96
2021/06/25 10:35:55;;;;;;;7.95;4.18;;;;;;;21.13;68.39;96636.59;127520;1093;24645;-95
2021/06/25 10:38:30;;;;;;;7.17;4.20;;;;;;;21.11;68.71;96643.44;127451;1093;114473;-94
2021/06/25 10:41:04;;;;;;;8.10;4.40;;;;;;;21.04;68.60;96661.01;127590;1093;25731;-94
2021/06/25 10:43:49;;;;;;;6.40;4.48;;;;;;;21.05;68.86;96656.40;127642;1092;27502;-92
2021/06/25 10:46:35;;;;;;;7.80;4.30;;;;;;;20.99;69.00;96644.31;127439;1093;114088;-93
2021/06/25 10:49:13;;;;;;;8.78;5.30;;;;;;;20.93;69.29;96642.97;127522;1093;27443;-94
2021/06/25 10:51:46;;;;;;;9.28;5.35;;;;;;;20.96;69.73;96653.06;127508;1093;114038;-92
2021/06/25 10:54:20;;;;;;;8.55;4.85;;;;;;;20.99;69.65;96658.57;127604;1093;24529;-92
2021/06/25 10:57:10;;;;;;;6.73;4.70;;;;;;;21.05;69.83;96670.66;127354;1093;114184;-94
2021/06/25 10:59:46;;;;;;;8.20;5.00;;;;;;;21.03;69.49;96678.31;127448;1093;26530;-92
2021/06/25 11:02:17;;;;;;;7.03;5.03;;;;;;;21.02;69.78;96678.66;127543;1093;26270;-94
2021/06/25 11:04:50;;;;;;;8.75;5.48;;;;;;;21.07;69.83;96681.09;127454;1093;113786;-92
2021/06/25 11:07:43;;;;;;;11.30;5.73;;;;;;;21.08;69.82;96676.48;127591;1093;24906;-92
2021/06/25 11:10:23;;;;;;;6.43;4.80;;;;;;;21.12;69.89;96688.17;127565;1093;114082;-92
2021/06/25 11:13:22;;;;;;;6.50;4.78;;;;;;;21.02;69.76;96689.44;127603;1093;27695;-92
2021/06/25 11:15:58;;;;;;;7.35;5.08;;;;;;;20.82;70.13;96672.31;127478;1093;113966;-92
2021/06/25 11:18:31;;;;;;;8.00;5.40;;;;;;;20.78;70.29;96657.19;127646;1093;26360;-92
2021/06/25 11:21:05;;;;;;;8.30;4.70;;;;;;;20.82;70.60;96652.67;127581;1093;114009;-91
2021/06/25 11:23:45;;;;;;;9.85;4.83;;;;;;;20.84;71.18;96645.05;127665;1093;26386;-93
2021/06/25 11:26:27;;;;;;;9.27;5.43;;;;;;;20.97;71.42;96647.35;127568;1093;31767;-92
2021/06/25 11:29:09;;;;;;;8.93;5.40;;;;;;;21.08;71.33;96647.62;127588;1093;113315;-94
2021/06/25 11:31:40;;;;;;;9.13;4.83;;;;;;;21.25;71.48;96647.32;128248;1093;23191;-92
2021/06/25 11:34:12;;;;;;;9.68;5.83;;;;;;;21.32;70.93;96649.44;127613;1093;113752;-95
2021/06/25 11:36:54;;;;;;;8.83;5.20;;;;;;;21.38;71.13;96649.95;127654;1093;26758;-93
2021/06/25 11:39:33;;;;;;;6.98;4.83;;;;;;;21.47;70.88;96664.06;127499;1093;113700;-91
2021/06/25 11:42:08;;;;;;;8.98;4.85;;;;;;;21.52;70.17;96661.88;127682;1093;24467;-91
2021/06/25 11:44:42;;;;;;;6.83;5.18;;;;;;;21.50;70.29;96647.17;127433;1093;114040;-93
2021/06/25 11:47:18;;;;;;;11.63;6.78;;;;;;;21.42;69.98;96657.02;127434;1093;26047;-93
2021/06/25 11:49:59;;;;;;;7.95;5.33;;;;;;;21.54;70.13;96672.34;127480;1093;26322;-96
2021/06/25 11:52:33;;;;;;;5.50;4.40;;;;;;;21.62;69.93;96682.95;127346;1093;114010;-93
2021/06/25 11:55:08;;;;;;;8.60;4.47;;;;;;;21.50;69.92;96684.94;127549;1093;25503;-93
2021/06/25 11:57:41;;;;;;;7.08;4.43;;;;;;;21.50;70.19;96684.94;127434;1092;113830;-94
2021/06/25 12:00:16;;;;;;;7.83;4.20;;;;;;;21.49;70.13;96688.77;127743;1093;27817;-92